Hlavní strana
METAR-TAF:

METAR-TAF

Letiště :

Mezinárodní letiště Dubaj

Dubaj, Spojené arabské emiráty

zeměpisná šířka: 25-15-10N, zeměpisná délka: 055-21-52E, výška: 8 m

Aktuální stav počasí

Zpráva byla vytvořena před 30 minutami, v 02:00 UTC
Východojihovýchodní vítr 3 kt
Teplota 30°C
Vlhkost vzduchu 25%
Tlak 1005 hPa
Viditelnost 10 km a více
Žádná oblačnost pod 1500 m, nevyskytují se cumulonimby.

METAR: OMDB 250200Z 11003KT CAVOK 30/08 Q1005 NOSIG

Čas: 06:30 (02:30 UTC)

Předpověď počasí

Zpráva byla vytvořena před 3 hodinami a 35 minutami, v 22:55 UTC
Předpověď platná od 25 v 00 UTC do 26 v 06 UTC
Východní vítr 5 kt
Viditelnost 10 km a více
Žádná oblačnost pod 1500 m, nevyskytují se cumulonimby.
Změna
od 25 v 03 UTC do 25 v 05 UTC
Jižní vítr 10 kt
Změna
od 25 v 08 UTC do 25 v 10 UTC
Severoseverozápadní vítr 13 kt
Změna
od 25 v 15 UTC do 25 v 17 UTC
Východoseverovýchodní vítr 5 kt

TAF: OMDB 242255Z 2500/2606 08005KT CAVOK BECMG 2503/2505 17010KT BECMG 2508/2510 34013KT BECMG 2515/2517 06005KT

Stav a předpovědi počasí z více než 4 000 letišť (zprávy METAR a TAF).

Červené a žluté tečky na mapě představují dostupné meteorologické stanice.

Když kurzor umístíte na tečku, zobrazí se název stanice.

Pak kliknutím zobrazíte stav a předpověď počasí.

Chcete-li změnit mapu, kliknutím na zelené tlačítko se znaménkem +mapu přiblížíte, kliknutím na zelené tlačítko se znaménkem – mapu oddálíte a kliknutím na zelené šipky přejdete na sousední mapy.


METAR-TAF: